Haines, AK (99827)

4:35 AM AKST on November 23, 2014 (GMT -0900)
HADS CHILKAT RIVER NEAR KLUKWAN AK US USGS | Change Station
CLOSE
Current Station
Personal Weather Station
Location: Haines, AK
Elevation: 115 ft
Nearby Weather Stations

Elev 115 ft 59.42 °N, 135.93 °W | Updated 2 hours ago

Overcast
Overcast
32 °F
Feels Like 32 °F
N
Wind Variable Wind from North
Gusts 0.0 mph

Today
High -- | Low -- °F
--% Chance of Precip.
Yesterday
High -- | Low -- °F
Precip. -- in
8:14 AM 3:21 PM
New Moon, 1% visible
Pressure 29.56 in
Visibility 10.0 miles
Clouds Overcast 1100 ft
Windchill 32 °F
Dew Point Not available.
Humidity Not available.
Rainfall -999.00 in
Snow Depth Not available.
UV 0 out of 12
Pollen Not available.
Air Quality Not available.
Flu Activity Not available.
METAR PAHN 231254Z AUTO VRB05KT 10SM OVC011 02/01 A2955 RMK AO2 SLP009 T00170006 TSNO

More Conditions Fewer Conditions

Pressure 29.56 in
Visibility 10.0 miles
Clouds Overcast 1100 ft
Windchill 32 °F
Dew Point Not available.
Humidity Not available.
Rainfall -999.00 in
Snow Depth Not available.
UV 0 out of 12
Pollen Not available.
Air Quality Not available.
Flu Activity Not available.
METAR PAHN 231254Z AUTO VRB05KT 10SM OVC011 02/01 A2955 RMK AO2 SLP009 T00170006 TSNO

More Conditions Fewer Conditions

10-Day Weather Forecast

Almanac

Astronomy

Nov. 23, 2014 Rise Set
Actual Time
Civil Twilight
Nautical Twilight
Astronomical Twilight
Moon
Length of Visible Light
Length of Day
Tomorrow will be .
, % of the Moon is Illuminated

Today's Extremes

State Highs State Lows

Community

WunderPhotos

Upload Photos

1,773,057 photos uploaded!

WunderBlogs® & News

Nearby

Air Quality

  Air Quality AQ Index Pollutant
Not available.

Snow Depth

Station Depth Elevation

Earthquake Activity

City Distance Mag. Time & Date
Minimum magnitude displayed is 2.5.

Coastal Water Temperatures

Place Temperature

Nearby Weather Stations